PWSweather.com
Personal Weather Stations
Station Observations
UWIDEPER1
Brown County, Depere, WI 54115

Brown CountyDepere, WI 54115

Lat: 44.44, Lon: -88.05

Elevation: 610

Station Type: Acurite 5in1

Latest ConditionsUpdated 9:20:01 AM CDT Monday, Sep 24, 2018
Currently Today's Max Today's Min Today's Average
Temperature 62.4°F16.9°C 62.7°F17.1°C 50.4°F10.2°C 54.9°F12.7°C
Dew Point 58.2°F14.6°C 58.5°F14.7°C 49.2°F9.6°C 53.4°F11.9°C
Winds 3.5 mph E5.6 kmh E 3.5 mph -5.6 kmh - - 1.2 mph 1.9 kmh
Wind Gusts 3.5 mph5.6 kmh 5.8 mph9.3 kmh - -
Humidity 86% 96% 86% 95%
Pressure 30.11 in1019.6 mb 30.11 in1019.6 mb 30.08 in1018.6 mb -
Hour Temp Dew Point Humidity Winds Wind Gusts Pressure Precip Precip Rate Daily Precip Total
09:20 AM 62.4°F16.9°C 58.2°F14.6°C 86% 3.5 mph E5.6 kmh E 3.5 mph5.6 kmh 30.11 in1019.6 mb - 0.00 in0.0 mm 0.00 in0.0 mm
09:15 AM 62.7°F17.1°C 58.4°F14.7°C 86% 3.5 mph SE5.6 kmh SE 3.5 mph5.6 kmh 30.10 in1019.3 mb - 0.00 in0.0 mm 0.00 in0.0 mm
09:10 AM 62.1°F16.7°C 58.5°F14.7°C 88% 2.3 mph ESE3.7 kmh ESE 3.5 mph5.6 kmh 30.11 in1019.6 mb - 0.00 in0.0 mm 0.00 in0.0 mm
09:00 AM 60.8°F16.0°C 57.3°F14.1°C 88% 2.3 mph SE3.7 kmh SE 2.3 mph3.7 kmh 30.11 in1019.6 mb - 0.00 in0.0 mm 0.00 in0.0 mm
08:55 AM 60.3°F15.7°C 56.7°F13.7°C 88% 2.3 mph E3.7 kmh E 2.3 mph3.7 kmh 30.11 in1019.6 mb - 0.00 in0.0 mm 0.00 in0.0 mm
08:50 AM 60.3°F15.7°C 57.3°F14.1°C 90% 2.3 mph ESE3.7 kmh ESE 2.3 mph3.7 kmh 30.11 in1019.6 mb - 0.00 in0.0 mm 0.00 in0.0 mm
08:45 AM 59.7°F15.4°C 56.8°F13.8°C 90% 2.3 mph E3.7 kmh E 1.2 mph1.9 kmh 30.11 in1019.6 mb - 0.00 in0.0 mm 0.00 in0.0 mm
08:40 AM 59.4°F15.2°C 56.4°F13.6°C 90% 2.3 mph SE3.7 kmh SE 3.5 mph5.6 kmh 30.11 in1019.6 mb - 0.00 in0.0 mm 0.00 in0.0 mm
08:35 AM 59.2°F15.1°C 56.6°F13.7°C 91% 2.3 mph NE3.7 kmh NE 2.3 mph3.7 kmh 30.11 in1019.6 mb - 0.00 in0.0 mm 0.00 in0.0 mm
08:30 AM 58.6°F14.8°C 56.0°F13.3°C 91% 2.3 mph ESE3.7 kmh ESE 3.5 mph5.6 kmh 30.11 in1019.6 mb - 0.00 in0.0 mm 0.00 in0.0 mm
08:25 AM 58.3°F14.6°C 55.7°F13.2°C 91% 2.3 mph SE3.7 kmh SE 2.3 mph3.7 kmh 30.11 in1019.6 mb - 0.00 in0.0 mm 0.00 in0.0 mm
08:20 AM 57.8°F14.3°C 55.8°F13.2°C 93% 2.3 mph NNE3.7 kmh NNE 3.5 mph5.6 kmh 30.11 in1019.6 mb - 0.00 in0.0 mm 0.00 in0.0 mm
08:15 AM 57.7°F14.3°C 55.7°F13.2°C 93% 3.5 mph ESE5.6 kmh ESE 5.8 mph9.3 kmh 30.11 in1019.6 mb - 0.00 in0.0 mm 0.00 in0.0 mm
08:10 AM 57.4°F14.1°C 55.4°F13.0°C 93% 2.3 mph ESE3.7 kmh ESE 3.5 mph5.6 kmh 30.11 in1019.6 mb - 0.00 in0.0 mm 0.00 in0.0 mm
08:00 AM 56.8°F13.8°C 55.4°F13.0°C 95% 2.3 mph E3.7 kmh E 1.2 mph1.9 kmh 30.11 in1019.6 mb - 0.00 in0.0 mm 0.00 in0.0 mm
07:55 AM 56.7°F13.7°C 55.2°F12.9°C 95% 2.3 mph SE3.7 kmh SE 3.5 mph5.6 kmh 30.11 in1019.6 mb - 0.00 in0.0 mm 0.00 in0.0 mm
07:50 AM 56.7°F13.7°C 55.5°F13.1°C 96% 2.3 mph E3.7 kmh E 3.5 mph5.6 kmh 30.11 in1019.6 mb - 0.00 in0.0 mm 0.00 in0.0 mm
07:45 AM 56.5°F13.6°C 55.4°F13.0°C 96% 2.3 mph E3.7 kmh E 2.3 mph3.7 kmh 30.11 in1019.6 mb - 0.00 in0.0 mm 0.00 in0.0 mm
07:40 AM 56.4°F13.6°C 55.3°F12.9°C 96% 2.3 mph SSE3.7 kmh SSE 5.8 mph9.3 kmh 30.11 in1019.6 mb - 0.00 in0.0 mm 0.00 in0.0 mm
07:35 AM 56.3°F13.5°C 55.2°F12.9°C 96% 1.2 mph SE1.9 kmh SE 3.5 mph5.6 kmh 30.11 in1019.6 mb - 0.00 in0.0 mm 0.00 in0.0 mm
07:30 AM 56.3°F13.5°C 55.2°F12.9°C 96% Calm Calm -- 30.11 in1019.6 mb - 0.00 in0.0 mm 0.00 in0.0 mm
07:25 AM 56.3°F13.5°C 55.2°F12.9°C 96% 2.3 mph SE3.7 kmh SE 2.3 mph3.7 kmh 30.11 in1019.6 mb - 0.00 in0.0 mm 0.00 in0.0 mm
07:20 AM 55.9°F13.3°C 54.8°F12.7°C 96% 2.3 mph ENE3.7 kmh ENE 4.6 mph7.4 kmh 30.11 in1019.6 mb - 0.00 in0.0 mm 0.00 in0.0 mm
07:15 AM 55.9°F13.3°C 54.8°F12.7°C 96% 2.3 mph ENE3.7 kmh ENE 4.6 mph7.4 kmh 30.11 in1019.6 mb - 0.00 in0.0 mm 0.00 in0.0 mm
07:10 AM 55.9°F13.3°C 54.8°F12.7°C 96% 2.3 mph E3.7 kmh E 3.5 mph5.6 kmh 30.11 in1019.6 mb - 0.00 in0.0 mm 0.00 in0.0 mm
07:00 AM 55.8°F13.2°C 54.6°F12.6°C 96% 2.3 mph ESE3.7 kmh ESE 3.5 mph5.6 kmh 30.11 in1019.6 mb - 0.00 in0.0 mm 0.00 in0.0 mm
06:55 AM 55.6°F13.1°C 54.5°F12.5°C 96% 2.3 mph ENE3.7 kmh ENE 4.6 mph7.4 kmh 30.11 in1019.6 mb - 0.00 in0.0 mm 0.00 in0.0 mm
06:50 AM 55.6°F13.1°C 54.5°F12.5°C 96% 2.3 mph ENE3.7 kmh ENE 4.6 mph7.4 kmh 30.11 in1019.6 mb - 0.00 in0.0 mm 0.00 in0.0 mm
06:45 AM 55.6°F13.1°C 54.5°F12.5°C 96% 2.3 mph E3.7 kmh E 3.5 mph5.6 kmh 30.11 in1019.6 mb - 0.00 in0.0 mm 0.00 in0.0 mm
06:40 AM 55.6°F13.1°C 54.5°F12.5°C 96% 2.3 mph ESE3.7 kmh ESE 2.3 mph3.7 kmh 30.11 in1019.6 mb - 0.00 in0.0 mm 0.00 in0.0 mm
06:35 AM 55.6°F13.1°C 54.5°F12.5°C 96% 1.2 mph ESE1.9 kmh ESE 1.2 mph1.9 kmh 30.11 in1019.6 mb - 0.00 in0.0 mm 0.00 in0.0 mm
06:30 AM 55.9°F13.3°C 54.8°F12.7°C 96% 1.2 mph ESE1.9 kmh ESE 1.2 mph1.9 kmh 30.11 in1019.6 mb - 0.00 in0.0 mm 0.00 in0.0 mm
06:25 AM 55.9°F13.3°C 54.8°F12.7°C 96% 1.2 mph ESE1.9 kmh ESE 1.2 mph1.9 kmh 30.11 in1019.6 mb - 0.00 in0.0 mm 0.00 in0.0 mm
06:20 AM 55.9°F13.3°C 54.8°F12.7°C 96% 2.3 mph SSE3.7 kmh SSE 1.2 mph1.9 kmh 30.11 in1019.6 mb - 0.00 in0.0 mm 0.00 in0.0 mm
06:15 AM 55.9°F13.3°C 54.8°F12.7°C 96% 2.3 mph ESE3.7 kmh ESE 3.5 mph5.6 kmh 30.11 in1019.6 mb - 0.00 in0.0 mm 0.00 in0.0 mm
06:10 AM 55.9°F13.3°C 54.8°F12.7°C 96% 1.2 mph ESE1.9 kmh ESE 1.2 mph1.9 kmh 30.11 in1019.6 mb - 0.00 in0.0 mm 0.00 in0.0 mm
06:00 AM 55.9°F13.3°C 54.8°F12.7°C 96% 1.2 mph E1.9 kmh E -- 30.11 in1019.6 mb - 0.00 in0.0 mm 0.00 in0.0 mm
05:55 AM 55.9°F13.3°C 54.8°F12.7°C 96% 2.3 mph SE3.7 kmh SE 3.5 mph5.6 kmh 30.11 in1019.6 mb - 0.00 in0.0 mm 0.00 in0.0 mm
05:50 AM 55.9°F13.3°C 54.8°F12.7°C 96% 1.2 mph E1.9 kmh E 2.3 mph3.7 kmh 30.11 in1019.6 mb - 0.00 in0.0 mm 0.00 in0.0 mm
05:45 AM 55.9°F13.3°C 54.8°F12.7°C 96% 2.3 mph ENE3.7 kmh ENE 2.3 mph3.7 kmh 30.09 in1019.0 mb - 0.00 in0.0 mm 0.00 in0.0 mm
05:40 AM 55.9°F13.3°C 54.8°F12.7°C 96% 2.3 mph ESE3.7 kmh ESE 2.3 mph3.7 kmh 30.10 in1019.3 mb - 0.00 in0.0 mm 0.00 in0.0 mm
05:35 AM 55.9°F13.3°C 54.8°F12.7°C 96% 1.2 mph SE1.9 kmh SE 2.3 mph3.7 kmh 30.10 in1019.3 mb - 0.00 in0.0 mm 0.00 in0.0 mm
05:30 AM 55.9°F13.3°C 54.8°F12.7°C 96% 1.2 mph ENE1.9 kmh ENE 3.5 mph5.6 kmh 30.09 in1019.0 mb - 0.00 in0.0 mm 0.00 in0.0 mm
05:25 AM 55.9°F13.3°C 54.8°F12.7°C 96% 1.2 mph NE1.9 kmh NE 3.5 mph5.6 kmh 30.09 in1019.0 mb - 0.00 in0.0 mm 0.00 in0.0 mm
05:20 AM 55.9°F13.3°C 54.8°F12.7°C 96% 1.2 mph ENE1.9 kmh ENE 2.3 mph3.7 kmh 30.09 in1019.0 mb - 0.00 in0.0 mm 0.00 in0.0 mm
05:15 AM 55.9°F13.3°C 54.8°F12.7°C 96% 1.2 mph ENE1.9 kmh ENE 3.5 mph5.6 kmh 30.09 in1019.0 mb - 0.00 in0.0 mm 0.00 in0.0 mm
05:10 AM 55.9°F13.3°C 54.8°F12.7°C 96% 1.2 mph E1.9 kmh E 2.3 mph3.7 kmh 30.09 in1019.0 mb - 0.00 in0.0 mm 0.00 in0.0 mm
05:00 AM 55.9°F13.3°C 54.8°F12.7°C 96% 1.2 mph ESE1.9 kmh ESE -- 30.09 in1019.0 mb - 0.00 in0.0 mm 0.00 in0.0 mm
04:55 AM 56.3°F13.5°C 55.2°F12.9°C 96% 1.2 mph E1.9 kmh E 2.3 mph3.7 kmh 30.10 in1019.3 mb - 0.00 in0.0 mm 0.00 in0.0 mm
04:50 AM 56.5°F13.6°C 55.4°F13.0°C 96% 1.2 mph NNE1.9 kmh NNE 2.3 mph3.7 kmh 30.10 in1019.3 mb - 0.00 in0.0 mm 0.00 in0.0 mm
04:45 AM 55.9°F13.3°C 54.8°F12.7°C 96% 2.3 mph ESE3.7 kmh ESE 2.3 mph3.7 kmh 30.10 in1019.3 mb - 0.00 in0.0 mm 0.00 in0.0 mm
04:40 AM 55.9°F13.3°C 54.8°F12.7°C 96% 2.3 mph ESE3.7 kmh ESE 2.3 mph3.7 kmh 30.09 in1019.0 mb - 0.00 in0.0 mm 0.00 in0.0 mm
04:35 AM 55.9°F13.3°C 54.8°F12.7°C 96% 1.2 mph ESE1.9 kmh ESE 2.3 mph3.7 kmh 30.09 in1019.0 mb - 0.00 in0.0 mm 0.00 in0.0 mm
04:30 AM 55.6°F13.1°C 54.5°F12.5°C 96% Calm Calm 2.3 mph3.7 kmh 30.09 in1019.0 mb - 0.00 in0.0 mm 0.00 in0.0 mm
04:25 AM 55.6°F13.1°C 54.5°F12.5°C 96% 1.2 mph E1.9 kmh E 1.2 mph1.9 kmh 30.09 in1019.0 mb - 0.00 in0.0 mm 0.00 in0.0 mm
04:20 AM 55.5°F13.1°C 54.3°F12.4°C 96% 2.3 mph SE3.7 kmh SE 3.5 mph5.6 kmh 30.09 in1019.0 mb - 0.00 in0.0 mm 0.00 in0.0 mm
04:15 AM 55.0°F12.8°C 53.9°F12.2°C 96% 1.2 mph ESE1.9 kmh ESE 2.3 mph3.7 kmh 30.09 in1019.0 mb - 0.00 in0.0 mm 0.00 in0.0 mm
04:10 AM 55.0°F12.8°C 53.9°F12.2°C 96% 1.2 mph S1.9 kmh S 2.3 mph3.7 kmh 30.09 in1019.0 mb - 0.00 in0.0 mm 0.00 in0.0 mm
04:00 AM 54.8°F12.7°C 53.7°F12.1°C 96% 1.2 mph SE1.9 kmh SE 2.3 mph3.7 kmh 30.09 in1019.0 mb - 0.00 in0.0 mm 0.00 in0.0 mm
03:55 AM 54.3°F12.4°C 53.2°F11.8°C 96% 2.3 mph ENE3.7 kmh ENE 1.2 mph1.9 kmh 30.09 in1019.0 mb - 0.00 in0.0 mm 0.00 in0.0 mm
03:50 AM 54.0°F12.2°C 52.9°F11.6°C 96% 1.2 mph 1.9 kmh 2.3 mph3.7 kmh 30.08 in1018.6 mb - 0.00 in0.0 mm 0.00 in0.0 mm
03:45 AM 54.0°F12.2°C 52.8°F11.6°C 96% 1.2 mph S1.9 kmh S 1.2 mph1.9 kmh 30.09 in1019.0 mb - 0.00 in0.0 mm 0.00 in0.0 mm
03:40 AM 53.8°F12.1°C 52.7°F11.5°C 96% Calm Calm -- 30.09 in1019.0 mb - 0.00 in0.0 mm 0.00 in0.0 mm
03:35 AM 53.8°F12.1°C 52.7°F11.5°C 96% Calm Calm -- 30.09 in1019.0 mb - 0.00 in0.0 mm 0.00 in0.0 mm
03:30 AM 53.8°F12.1°C 52.7°F11.5°C 96% Calm Calm 1.2 mph1.9 kmh 30.09 in1019.0 mb - 0.00 in0.0 mm 0.00 in0.0 mm
03:25 AM 53.9°F12.2°C 52.8°F11.6°C 96% Calm Calm -- 30.10 in1019.3 mb - 0.00 in0.0 mm 0.00 in0.0 mm
03:20 AM 53.6°F12.0°C 52.5°F11.4°C 96% Calm Calm 3.5 mph5.6 kmh 30.10 in1019.3 mb - 0.00 in0.0 mm 0.00 in0.0 mm
03:15 AM 53.4°F11.9°C 52.3°F11.3°C 96% Calm Calm -- 30.10 in1019.3 mb - 0.00 in0.0 mm 0.00 in0.0 mm
03:10 AM 53.4°F11.9°C 52.3°F11.3°C 96% Calm Calm -- 30.10 in1019.3 mb - 0.00 in0.0 mm 0.00 in0.0 mm
03:00 AM 53.4°F11.9°C 52.3°F11.3°C 96% Calm Calm -- 30.10 in1019.3 mb - 0.00 in0.0 mm 0.00 in0.0 mm
02:55 AM 53.8°F12.1°C 52.7°F11.5°C 96% 1.2 mph E1.9 kmh E 2.3 mph3.7 kmh 30.10 in1019.3 mb - 0.00 in0.0 mm 0.00 in0.0 mm
02:50 AM 53.4°F11.9°C 52.3°F11.3°C 96% 1.2 mph ESE1.9 kmh ESE 3.5 mph5.6 kmh 30.09 in1019.0 mb - 0.00 in0.0 mm 0.00 in0.0 mm
02:45 AM 53.4°F11.9°C 52.3°F11.3°C 96% Calm Calm 1.2 mph1.9 kmh 30.09 in1019.0 mb - 0.00 in0.0 mm 0.00 in0.0 mm
02:40 AM 53.1°F11.7°C 52.0°F11.1°C 96% Calm Calm 1.2 mph1.9 kmh 30.09 in1019.0 mb - 0.00 in0.0 mm 0.00 in0.0 mm
02:35 AM 53.1°F11.7°C 52.0°F11.1°C 96% 1.2 mph NW1.9 kmh NW -- 30.10 in1019.3 mb - 0.00 in0.0 mm 0.00 in0.0 mm
02:30 AM 52.5°F11.4°C 51.4°F10.8°C 96% Calm Calm 1.2 mph1.9 kmh 30.09 in1019.0 mb - 0.00 in0.0 mm 0.00 in0.0 mm
02:25 AM 52.5°F11.4°C 51.4°F10.8°C 96% Calm Calm -- 30.09 in1019.0 mb - 0.00 in0.0 mm 0.00 in0.0 mm
02:20 AM 51.4°F10.8°C 50.3°F10.2°C 96% Calm Calm -- 30.09 in1019.0 mb - 0.00 in0.0 mm 0.00 in0.0 mm
02:15 AM 51.4°F10.8°C 50.3°F10.2°C 96% Calm Calm -- 30.10 in1019.3 mb - 0.00 in0.0 mm 0.00 in0.0 mm
02:10 AM 51.4°F10.8°C 50.3°F10.2°C 96% Calm Calm -- 30.10 in1019.3 mb - 0.00 in0.0 mm 0.00 in0.0 mm
02:00 AM 50.5°F10.3°C 49.4°F9.7°C 96% Calm Calm -- 30.10 in1019.3 mb - 0.00 in0.0 mm 0.00 in0.0 mm
01:55 AM 50.4°F10.2°C 49.3°F9.6°C 96% Calm Calm -- 30.10 in1019.3 mb - 0.00 in0.0 mm 0.00 in0.0 mm
01:50 AM 50.5°F10.3°C 49.2°F9.6°C 95% Calm Calm -- 30.10 in1019.3 mb - 0.00 in0.0 mm 0.00 in0.0 mm
01:45 AM 50.5°F10.3°C 49.2°F9.6°C 95% Calm Calm -- 30.10 in1019.3 mb - 0.00 in0.0 mm 0.00 in0.0 mm
01:40 AM 50.6°F10.3°C 49.2°F9.6°C 95% Calm Calm -- 30.09 in1019.0 mb - 0.00 in0.0 mm 0.00 in0.0 mm
01:35 AM 50.7°F10.4°C 49.3°F9.6°C 95% Calm Calm -- 30.09 in1019.0 mb - 0.00 in0.0 mm 0.00 in0.0 mm
01:30 AM 50.9°F10.5°C 49.5°F9.7°C 95% Calm Calm -- 30.09 in1019.0 mb - 0.00 in0.0 mm 0.00 in0.0 mm
01:25 AM 51.1°F10.6°C 49.7°F9.8°C 95% Calm Calm -- 30.09 in1019.0 mb - 0.00 in0.0 mm 0.00 in0.0 mm
01:20 AM 51.3°F10.7°C 49.9°F9.9°C 95% Calm Calm -- 30.09 in1019.0 mb - 0.00 in0.0 mm 0.00 in0.0 mm
01:15 AM 51.1°F10.6°C 49.7°F9.8°C 95% Calm Calm -- 30.09 in1019.0 mb - 0.00 in0.0 mm 0.00 in0.0 mm
01:10 AM 50.9°F10.5°C 49.5°F9.7°C 95% Calm Calm 1.2 mph1.9 kmh 30.10 in1019.3 mb - 0.00 in0.0 mm 0.00 in0.0 mm
01:00 AM 50.9°F10.5°C 49.5°F9.7°C 95% Calm Calm -- 30.10 in1019.3 mb - 0.00 in0.0 mm 0.00 in0.0 mm
12:55 AM 51.1°F10.6°C 49.7°F9.8°C 95% Calm Calm -- 30.10 in1019.3 mb - 0.00 in0.0 mm 0.00 in0.0 mm
12:50 AM 51.3°F10.7°C 49.9°F9.9°C 95% Calm Calm -- 30.10 in1019.3 mb - 0.00 in0.0 mm 0.00 in0.0 mm
12:45 AM 51.3°F10.7°C 49.9°F9.9°C 95% Calm Calm -- 30.10 in1019.3 mb - 0.00 in0.0 mm 0.00 in0.0 mm
12:40 AM 51.8°F11.0°C 50.4°F10.2°C 95% Calm Calm -- 30.10 in1019.3 mb - 0.00 in0.0 mm 0.00 in0.0 mm
12:35 AM 51.8°F11.0°C 50.4°F10.2°C 95% Calm Calm -- 30.10 in1019.3 mb - 0.00 in0.0 mm 0.00 in0.0 mm
12:30 AM 52.0°F11.1°C 50.6°F10.3°C 95% Calm Calm -- 30.11 in1019.6 mb - 0.00 in0.0 mm 0.00 in0.0 mm
12:25 AM 52.2°F11.2°C 50.8°F10.4°C 95% Calm Calm 1.2 mph1.9 kmh 30.10 in1019.3 mb - 0.00 in0.0 mm 0.00 in0.0 mm
12:20 AM 52.2°F11.2°C 50.8°F10.4°C 95% 1.2 mph E1.9 kmh E 1.2 mph1.9 kmh 30.10 in1019.3 mb - 0.00 in0.0 mm 0.00 in0.0 mm
12:15 AM 52.2°F11.2°C 50.8°F10.4°C 95% 1.2 mph E1.9 kmh E 1.2 mph1.9 kmh 30.10 in1019.3 mb - 0.00 in0.0 mm 0.00 in0.0 mm
12:10 AM 52.2°F11.2°C 50.8°F10.4°C 95% 1.2 mph ENE1.9 kmh ENE 2.3 mph3.7 kmh 30.11 in1019.6 mb - 0.00 in0.0 mm 0.00 in0.0 mm
12:00 AM 52.3°F11.3°C 51.0°F10.6°C 95% Calm Calm -- 30.11 in1019.6 mb - 0.00 in0.0 mm 0.00 in0.0 mm